Time;durP1;ratioP1;P1;durP2;ratioP2;P2;SDS_P1;SDS_P2;PMS_P1;PMS_P2;Temp;Humidity;BMP_temperature;BMP_pressure;BME280_temperature;BME280_humidity;BME280_pressure;Samples;Min_cycle;Max_cycle;Signal;HPM_P1;HPM_P2
2022/04/27 00:00:33;;;;;;;10.55;7.50;;;;;;;7.99;92.35;100928.28;5029489;28;21447;-73
2022/04/27 00:03:00;;;;;;;8.55;7.20;;;;;;;8.01;92.47;100925.53;5034966;28;20036;-73
2022/04/27 00:05:25;;;;;;;9.25;7.55;;;;;;;8.05;92.48;100925.13;5036504;28;20026;-73
2022/04/27 00:07:51;;;;;;;10.02;7.47;;;;;;;8.11;92.48;100931.72;5033533;28;20118;-73
2022/04/27 00:10:19;;;;;;;10.48;8.00;;;;;;;8.15;92.60;100925.25;5034064;28;20033;-73
2022/04/27 00:12:45;;;;;;;10.52;8.10;;;;;;;8.19;92.57;100929.28;5035915;28;20038;-73
2022/04/27 00:15:10;;;;;;;;;;;;;;;8.19;92.78;100929.28;5033941;28;20034;-73
2022/04/27 00:17:36;;;;;;;9.37;7.93;;;;;;;8.24;92.45;100927.09;5031507;28;19916;-73
2022/04/27 00:20:01;;;;;;;;;;;;;;;8.25;92.18;100925.31;5028614;28;20078;-73
2022/04/27 00:22:26;;;;;;;9.53;7.53;;;;;;;8.27;92.16;100926.84;5025744;28;19996;-73
2022/04/27 00:24:51;;;;;;;8.52;6.75;;;;;;;8.32;91.82;100933.53;5028887;28;20359;-73
2022/04/27 00:27:17;;;;;;;9.25;7.55;;;;;;;8.36;91.96;100919.13;5035830;28;20044;-73
2022/04/27 00:29:43;;;;;;;7.77;6.60;;;;;;;8.46;91.82;100920.91;5036350;28;20407;-73
2022/04/27 00:32:08;;;;;;;6.43;5.53;;;;;;;8.43;91.77;100930.88;5037111;28;20300;-73
2022/04/27 00:34:34;;;;;;;10.10;7.82;;;;;;;8.40;91.98;100923.22;5035330;28;20409;-73
2022/04/27 00:36:59;;;;;;;7.60;6.90;;;;;;;8.52;91.77;100932.75;5050320;28;20425;-73
2022/04/27 00:39:25;;;;;;;7.15;6.20;;;;;;;8.49;92.12;100935.63;5050681;28;20041;-73
2022/04/27 00:41:59;;;;;;;;;;;;;;;8.44;92.03;100932.56;5050531;28;20524;-73
2022/04/27 00:44:29;;;;;;;11.32;9.07;;;;;;;8.42;92.19;100940.59;5039254;28;19920;-73
2022/04/27 00:46:54;;;;;;;10.85;8.40;;;;;;;8.43;92.17;100936.97;5051524;28;20036;-73
2022/04/27 00:49:20;;;;;;;9.52;7.93;;;;;;;8.46;91.65;100939.38;5051575;28;20037;-73
2022/04/27 00:51:46;;;;;;;9.77;7.60;;;;;;;8.44;91.43;100938.66;5035294;28;20512;-73
2022/04/27 00:54:12;;;;;;;9.05;7.45;;;;;;;8.45;91.46;100939.47;5029367;28;20595;-73
2022/04/27 00:56:39;;;;;;;9.50;7.70;;;;;;;8.43;91.49;100934.34;5028666;28;20555;-73
2022/04/27 00:59:05;;;;;;;9.30;7.60;;;;;;;8.36;91.42;100932.31;5033232;28;20113;-74
2022/04/27 01:01:30;;;;;;;9.38;7.40;;;;;;;8.29;91.37;100934.59;5022697;28;20097;-73
2022/04/27 01:03:56;;;;;;;9.68;7.55;;;;;;;8.23;91.52;100935.13;5033178;28;20124;-73
2022/04/27 01:06:22;;;;;;;6.77;5.90;;;;;;;8.32;91.37;100947.56;5028561;28;20403;-73
2022/04/27 01:08:47;;;;;;;;;;;;;;;8.27;91.45;100940.03;5032136;28;20276;-73
2022/04/27 01:11:13;;;;;;;7.60;5.83;;;;;;;8.27;91.82;100947.06;5028005;28;19916;-73
2022/04/27 01:13:38;;;;;;;7.87;7.07;;;;;;;8.38;91.37;100935.66;5030457;28;20441;-73
2022/04/27 01:16:05;;;;;;;6.97;5.70;;;;;;;8.29;91.81;100938.09;5029483;28;20398;-73
2022/04/27 01:18:31;;;;;;;7.05;5.78;;;;;;;8.25;91.93;100946.38;5032367;28;20572;-73
2022/04/27 01:20:56;;;;;;;;;;;;;;;8.23;92.10;100946.50;5037943;28;20037;-74
2022/04/27 01:23:21;;;;;;;;;;;;;;;8.25;92.15;100949.84;5039907;28;19944;-73
2022/04/27 01:25:54;;;;;;;;;;;;;;;8.25;92.33;100954.28;5062801;28;19921;-72
2022/04/27 01:28:22;;;;;;;9.55;7.70;;;;;;;8.28;91.74;100939.06;5040149;28;19917;-72
2022/04/27 01:30:56;;;;;;;9.88;7.28;;;;;;;8.29;91.86;100938.09;5035081;28;20517;-73
2022/04/27 01:33:21;;;;;;;8.25;6.63;;;;;;;8.29;91.33;100940.75;5035272;28;20033;-73
2022/04/27 01:35:46;;;;;;;9.25;7.03;;;;;;;8.28;91.44;100939.06;5039657;28;20041;-73
2022/04/27 01:38:12;;;;;;;8.75;6.88;;;;;;;8.33;91.08;100943.13;5037414;28;20529;-72
2022/04/27 01:40:38;;;;;;;10.27;8.30;;;;;;;8.31;91.44;100943.22;5035950;28;20045;-73
2022/04/27 01:43:04;;;;;;;11.38;9.23;;;;;;;8.29;91.91;100946.00;5035230;28;20040;-73
2022/04/27 01:45:29;;;;;;;11.95;8.52;;;;;;;8.33;91.58;100951.84;5047279;28;20505;-75
2022/04/27 01:47:55;;;;;;;8.65;7.35;;;;;;;8.36;91.25;100950.75;5051640;28;20039;-75
2022/04/27 01:50:20;;;;;;;10.20;7.35;;;;;;;8.37;91.21;100952.44;5054102;28;20095;-72
2022/04/27 01:55:29;;;;;;;8.13;7.03;;;;;;;8.56;91.84;100949.97;5038893;28;20420;-75
2022/04/27 01:57:55;;;;;;;9.88;7.70;;;;;;;8.49;92.11;100951.44;5054907;28;20392;-75
2022/04/27 02:00:21;;;;;;;11.20;8.57;;;;;;;8.44;92.29;100946.56;5055635;28;20158;-75
2022/04/27 02:02:47;;;;;;;10.23;7.70;;;;;;;8.39;92.01;100953.13;5046326;28;20030;-72
2022/04/27 02:05:12;;;;;;;8.10;6.22;;;;;;;8.31;91.93;100953.78;5051778;28;20066;-73
2022/04/27 02:07:38;;;;;;;10.93;7.68;;;;;;;8.27;92.16;100949.69;5040034;28;20152;-72
2022/04/27 02:10:05;;;;;;;9.32;6.80;;;;;;;8.20;92.07;100952.03;5034916;28;20057;-72
2022/04/27 02:12:31;;;;;;;8.48;6.25;;;;;;;8.12;91.84;100953.63;5031798;28;20457;-75
2022/04/27 02:14:56;;;;;;;8.80;7.40;;;;;;;8.02;92.11;100964.06;5041099;28;20038;-72
2022/04/27 02:17:21;;;;;;;8.88;7.25;;;;;;;7.94;91.85;100963.84;5054742;28;20067;-75
2022/04/27 02:19:47;;;;;;;9.70;7.78;;;;;;;7.85;92.02;100963.63;5053257;28;20052;-75
2022/04/27 02:22:13;;;;;;;8.63;7.45;;;;;;;7.80;92.31;100959.69;5052681;28;20043;-73
2022/04/27 02:24:38;;;;;;;8.07;6.40;;;;;;;7.76;92.10;100963.53;5049203;28;20132;-72
2022/04/27 02:27:03;;;;;;;9.85;7.72;;;;;;;7.69;92.37;100962.34;5030741;28;20301;-72
2022/04/27 02:29:29;;;;;;;9.02;7.03;;;;;;;7.62;92.45;100962.00;5031699;28;20064;-75
2022/04/27 02:31:54;;;;;;;10.98;8.13;;;;;;;7.56;92.36;100965.13;5047561;28;20140;-75
2022/04/27 02:34:19;;;;;;;9.48;7.80;;;;;;;7.54;92.83;100961.78;5054970;28;20028;-74
2022/04/27 02:36:45;;;;;;;;;;;;;;;7.53;92.43;100971.47;5052925;28;20094;-73
2022/04/27 02:39:10;;;;;;;11.20;8.60;;;;;;;7.50;92.17;100963.78;5054041;28;20288;-75
2022/04/27 02:41:35;;;;;;;9.60;8.57;;;;;;;7.57;92.12;100970.25;5057127;28;20504;-74
2022/04/27 02:44:01;;;;;;;11.13;9.02;;;;;;;7.45;92.21;100966.78;5041079;28;20337;-75
2022/04/27 02:46:26;;;;;;;10.82;8.57;;;;;;;7.38;92.48;100965.59;5039358;28;20029;-74
2022/04/27 02:51:48;;;;;;;9.80;7.97;;;;;;;7.32;92.76;100963.47;5033476;28;20059;-74
2022/04/27 02:54:14;;;;;;;9.65;7.80;;;;;;;7.22;92.94;100968.59;5040497;28;20074;-73
2022/04/27 02:56:39;;;;;;;11.98;9.85;;;;;;;7.13;93.63;100973.75;5035008;28;20120;-74
2022/04/27 02:59:05;;;;;;;14.93;10.80;;;;;;;7.12;94.01;100974.69;5043754;28;20055;-74
2022/04/27 03:01:30;;;;;;;12.30;9.98;;;;;;;7.08;93.42;100971.47;5051730;28;20036;-74
2022/04/27 03:03:55;;;;;;;;;;;;;;;6.98;93.60;100970.47;5048620;28;20033;-74
2022/04/27 03:06:20;;;;;;;9.40;7.30;;;;;;;6.90;93.47;100972.88;5045370;28;19920;-74
2022/04/27 03:08:46;;;;;;;13.45;10.82;;;;;;;6.81;93.72;100977.84;5028015;28;20285;-74
2022/04/27 03:11:11;;;;;;;12.10;8.82;;;;;;;6.76;93.57;100971.28;5032522;28;20702;-74
2022/04/27 03:13:36;;;;;;;12.02;9.38;;;;;;;6.66;93.77;100976.41;5028114;28;20095;-74
2022/04/27 03:16:02;;;;;;;10.73;8.52;;;;;;;6.57;93.64;100985.78;5043777;28;20060;-74
2022/04/27 03:18:27;;;;;;;14.00;10.38;;;;;;;6.51;93.92;100972.31;5045681;28;20037;-74
2022/04/27 03:20:52;;;;;;;12.90;10.27;;;;;;;6.45;93.91;100981.47;5044372;28;20042;-74
2022/04/27 03:23:18;;;;;;;12.20;9.27;;;;;;;6.38;94.07;100977.59;5043537;28;20782;-74
2022/04/27 03:25:43;;;;;;;13.75;10.05;;;;;;;6.31;94.26;100990.34;5052704;28;20044;-74
2022/04/27 03:28:09;;;;;;;12.15;9.77;;;;;;;6.23;94.50;100984.84;5050263;28;20048;-74
2022/04/27 03:30:34;;;;;;;13.25;10.00;;;;;;;6.16;94.71;100986.25;5051731;28;20124;-74
2022/04/27 03:33:00;;;;;;;13.32;9.75;;;;;;;6.10;94.61;100986.66;5038631;28;20401;-74
2022/04/27 03:35:26;;;;;;;12.32;9.68;;;;;;;6.05;94.71;100986.16;5049464;28;20029;-73
2022/04/27 03:37:52;;;;;;;10.75;8.32;;;;;;;5.98;94.65;100985.78;5050159;28;20083;-73
2022/04/27 03:40:17;;;;;;;10.98;8.13;;;;;;;5.92;94.51;100983.56;5036818;28;20128;-74
2022/04/27 03:42:42;;;;;;;11.88;8.75;;;;;;;5.90;94.42;100988.09;5032811;28;20682;-74
2022/04/27 03:45:08;;;;;;;12.52;8.90;;;;;;;5.90;94.51;100995.97;5055417;28;20033;-73
2022/04/27 03:47:33;;;;;;;12.60;9.23;;;;;;;5.88;94.61;100992.59;5045500;28;20409;-74
2022/04/27 03:50:04;;;;;;;11.15;8.27;;;;;;;5.85;94.57;100995.47;5042336;28;20037;-74
2022/04/27 03:52:30;;;;;;;8.65;7.40;;;;;;;5.90;94.49;100993.34;5040403;28;20490;-73
2022/04/27 03:55:00;;;;;;;10.95;8.13;;;;;;;5.84;94.70;100991.13;5042988;28;20462;-73
2022/04/27 03:57:25;;;;;;;;;;;;;;;5.75;95.04;101000.53;5042601;28;20068;-75
2022/04/27 03:59:50;;;;;;;10.80;8.70;;;;;;;5.70;95.01;100998.22;5036479;28;19917;-73
2022/04/27 04:02:16;;;;;;;9.88;7.80;;;;;;;5.67;95.03;101003.69;5038131;28;20280;-74
2022/04/27 04:04:41;;;;;;;;;;;;;;;5.63;95.10;101009.28;5042331;28;20105;-74
2022/04/27 04:07:06;;;;;;;11.77;9.13;;;;;;;5.60;95.50;101004.22;5042547;28;19923;-74
2022/04/27 04:09:31;;;;;;;10.13;9.00;;;;;;;5.75;95.54;101006.59;5032485;28;20428;-74
2022/04/27 04:11:57;;;;;;;9.17;8.07;;;;;;;5.89;95.60;101010.03;5038172;28;20415;-74
2022/04/27 04:14:22;;;;;;;11.05;8.93;;;;;;;5.88;95.96;101008.34;5044477;28;20106;-74
2022/04/27 04:16:47;;;;;;;;;;;;;;;5.89;96.69;101017.91;5038415;28;20044;-74
2022/04/27 04:19:13;;;;;;;16.48;11.50;;;;;;;5.93;97.08;101012.34;5039966;28;20411;-73
2022/04/27 04:21:38;;;;;;;14.85;11.20;;;;;;;5.98;96.54;101027.78;5042438;28;20040;-73
2022/04/27 04:24:04;;;;;;;20.88;14.48;;;;;;;6.01;96.48;101032.81;5042442;28;20041;-74
2022/04/27 04:29:13;;;;;;;19.67;13.95;;;;;;;6.11;97.00;101043.50;5040920;28;20099;-74
2022/04/27 04:31:39;;;;;;;17.38;11.57;;;;;;;6.09;97.21;101048.03;5036876;28;20033;-74
2022/04/27 04:34:04;;;;;;;17.83;12.38;;;;;;;6.10;96.72;101044.44;5034405;28;20030;-74
2022/04/27 04:36:30;;;;;;;20.67;14.07;;;;;;;6.12;97.29;101050.41;5041595;28;20033;-74
2022/04/27 04:38:55;;;;;;;25.40;17.33;;;;;;;6.15;97.46;101051.06;5042442;28;20040;-74
2022/04/27 04:41:21;;;;;;;32.55;21.90;;;;;;;6.29;98.06;101055.31;5036813;28;20030;-74
2022/04/27 04:43:46;;;;;;;36.03;23.50;;;;;;;6.42;98.03;101059.66;5041252;28;20025;-74
2022/04/27 04:46:11;;;;;;;32.95;22.10;;;;;;;6.47;98.54;101065.44;5040546;28;20048;-74
2022/04/27 04:48:36;;;;;;;31.80;21.70;;;;;;;6.50;99.46;101058.13;5039277;28;20535;-74
2022/04/27 04:51:02;;;;;;;28.58;19.55;;;;;;;6.57;99.21;101062.00;5043098;28;20048;-74
2022/04/27 04:53:27;;;;;;;26.60;19.38;;;;;;;6.61;98.71;101073.13;5034148;28;20064;-73
2022/04/27 04:55:52;;;;;;;28.17;18.77;;;;;;;6.67;98.84;101075.28;5038491;28;20064;-73
2022/04/27 04:58:18;;;;;;;26.98;18.67;;;;;;;6.71;98.83;101070.66;5046970;28;20464;-74
2022/04/27 05:00:45;;;;;;;23.80;17.50;;;;;;;6.77;99.06;101073.69;5041361;28;20088;-74
2022/04/27 05:03:11;;;;;;;24.55;16.98;;;;;;;6.87;98.65;101073.84;5040567;28;20524;-74
2022/04/27 05:05:40;;;;;;;22.30;15.75;;;;;;;7.03;98.21;101084.03;5045285;28;20261;-74
2022/04/27 05:08:07;;;;;;;24.63;17.08;;;;;;;7.12;98.14;101091.22;5041585;28;20034;-74
2022/04/27 05:10:33;;;;;;;20.38;15.05;;;;;;;7.25;97.68;101087.69;5037132;28;20033;-74
2022/04/27 05:12:59;;;;;;;19.58;14.20;;;;;;;7.35;97.01;101092.13;5044088;28;20064;-74
2022/04/27 05:15:24;;;;;;;18.60;13.45;;;;;;;7.42;96.79;101090.69;5042322;28;20049;-74
2022/04/27 05:17:50;;;;;;;19.02;13.98;;;;;;;7.54;96.63;101103.88;5040733;28;20036;-73
2022/04/27 05:20:15;;;;;;;19.95;14.32;;;;;;;7.72;96.69;101105.06;5031575;28;20157;-74
2022/04/27 05:22:41;;;;;;;22.27;15.75;;;;;;;7.92;96.13;101097.44;5034964;28;20465;-73
2022/04/27 05:25:09;;;;;;;19.17;13.55;;;;;;;8.33;95.85;101111.75;5036311;28;20440;-74
2022/04/27 05:27:35;;;;;;;16.80;11.68;;;;;;;8.69;94.97;101106.16;5047790;28;20394;-74
2022/04/27 05:32:47;;;;;;;14.88;11.00;;;;;;;9.26;93.33;101112.00;5014497;28;20045;-74
2022/04/27 05:35:13;;;;;;;14.85;11.07;;;;;;;9.52;92.81;101117.72;5033635;28;20037;-74
2022/04/27 05:37:39;;;;;;;12.32;9.30;;;;;;;9.81;92.50;101114.41;5035935;28;20042;-74
2022/04/27 05:40:05;;;;;;;15.57;11.60;;;;;;;10.01;91.68;101123.25;5034540;28;20133;-75
2022/04/27 05:42:31;;;;;;;13.20;10.00;;;;;;;10.05;91.25;101118.53;5035333;28;20040;-74
2022/04/27 05:44:57;;;;;;;17.95;11.90;;;;;;;9.99;90.59;101122.56;5036604;28;20042;-74
2022/04/27 05:47:23;;;;;;;;;;;;;;;9.77;90.03;101129.69;5038334;28;20037;-74
2022/04/27 05:49:50;;;;;;;20.77;15.32;;;;;;;9.50;89.07;101132.84;5032613;28;19927;-74
2022/04/27 05:52:16;;;;;;;21.05;15.77;;;;;;;9.30;88.99;101131.91;5037893;28;20116;-74
2022/04/27 05:54:41;;;;;;;21.60;16.25;;;;;;;9.02;88.38;101125.44;5064850;28;20088;-74
2022/04/27 05:57:07;;;;;;;21.38;14.95;;;;;;;9.05;88.59;101133.09;5062468;28;20043;-74
2022/04/27 05:59:32;;;;;;;20.67;15.35;;;;;;;9.02;89.26;101133.38;5050427;28;20053;-74
2022/04/27 06:01:57;;;;;;;20.95;15.10;;;;;;;9.24;89.39;101131.56;5040492;28;20033;-74
2022/04/27 06:04:23;;;;;;;25.08;18.10;;;;;;;9.43;89.01;101138.78;5040519;28;20033;-74
2022/04/27 06:06:48;;;;;;;21.33;16.08;;;;;;;9.50;88.19;101132.03;5041102;28;20125;-74
2022/04/27 06:09:14;;;;;;;17.35;13.43;;;;;;;9.79;88.33;101133.00;5034217;28;20037;-74
2022/04/27 06:11:39;;;;;;;;;;;;;;;10.00;87.07;101134.78;5037191;28;20497;-75
2022/04/27 06:14:04;;;;;;;;;;;;;;;10.13;84.01;101134.53;5061886;28;19927;-74
2022/04/27 06:16:32;;;;;;;;;;;;;;;10.37;84.58;101132.44;5054360;28;19917;-75
2022/04/27 06:18:58;;;;;;;20.33;14.67;;;;;;;10.55;83.53;101132.59;5050693;28;20011;-75
2022/04/27 06:21:23;;;;;;;20.08;14.25;;;;;;;10.59;81.54;101138.47;5032221;28;20038;-75
2022/04/27 06:23:49;;;;;;;19.73;14.75;;;;;;;10.68;81.35;101134.13;5036892;28;20117;-75
2022/04/27 06:26:14;;;;;;;19.00;14.30;;;;;;;10.80;81.16;101138.34;5029510;28;20037;-75
2022/04/27 06:28:40;;;;;;;19.92;14.63;;;;;;;11.13;80.96;101149.47;5034119;28;20086;-75
2022/04/27 06:31:05;;;;;;;20.20;14.98;;;;;;;11.38;80.05;101148.06;5037468;28;20033;-75
2022/04/27 06:33:31;;;;;;;16.17;12.30;;;;;;;11.57;79.18;101153.31;5037741;28;20030;-75
2022/04/27 06:35:57;;;;;;;16.55;13.15;;;;;;;12.15;78.73;101152.31;5034488;28;20033;-75
2022/04/27 06:38:22;;;;;;;13.60;10.88;;;;;;;12.41;77.64;101155.13;5055009;28;20104;-74
2022/04/27 06:40:48;;;;;;;;;;;;;;;12.87;78.99;101150.66;5033688;28;20041;-76
2022/04/27 06:43:13;;;;;;;11.50;8.63;;;;;;;13.32;78.15;101148.88;5043650;28;19920;-75
2022/04/27 06:45:38;;;;;;;12.43;9.20;;;;;;;13.69;76.74;101153.97;5056260;28;20346;-75
2022/04/27 06:48:04;;;;;;;13.85;10.32;;;;;;;13.81;75.63;101154.53;5053922;28;20029;-75
2022/04/27 06:50:30;;;;;;;15.23;11.18;;;;;;;13.94;73.29;101160.25;5048752;28;20044;-75
2022/04/27 06:52:59;;;;;;;15.52;12.27;;;;;;;13.75;70.31;101163.13;5048410;28;20060;-75
2022/04/27 06:55:25;;;;;;;15.75;11.18;;;;;;;13.67;70.61;101166.56;5052904;28;20029;-74
2022/04/27 06:57:50;;;;;;;14.25;10.98;;;;;;;13.96;71.10;101168.06;5041757;28;20041;-75
2022/04/27 07:00:16;;;;;;;13.60;10.73;;;;;;;14.02;69.58;101175.44;5035157;28;20109;-75
2022/04/27 07:02:41;;;;;;;13.60;10.43;;;;;;;14.15;69.65;101182.97;5038121;28;20497;-75
2022/04/27 07:05:12;;;;;;;11.20;8.82;;;;;;;14.46;70.40;101180.59;5046348;28;20032;-74
2022/04/27 07:07:37;;;;;;;11.10;7.93;;;;;;;14.77;69.52;101188.84;5058231;28;20411;-74
2022/04/27 07:10:03;;;;;;;11.85;8.32;;;;;;;15.12;68.88;101188.75;5053956;28;20291;-74
2022/04/27 07:12:28;;;;;;;8.77;7.15;;;;;;;15.41;67.56;101188.25;5053658;28;20034;-74
2022/04/27 07:14:54;;;;;;;10.38;8.20;;;;;;;15.66;67.81;101189.91;5041602;28;20398;-75
2022/04/27 07:17:19;;;;;;;13.05;9.70;;;;;;;15.51;64.82;101189.75;5042349;28;20053;-74
2022/04/27 07:19:45;;;;;;;13.20;9.85;;;;;;;15.36;64.70;101195.94;5042346;28;20387;-75
2022/04/27 07:22:11;;;;;;;12.80;8.95;;;;;;;15.58;64.55;101194.41;5040707;28;20037;-74
2022/04/27 07:24:37;;;;;;;10.23;8.25;;;;;;;15.78;64.49;101195.75;5040638;28;20502;-74
2022/04/27 07:27:03;;;;;;;11.20;9.38;;;;;;;15.74;62.95;101202.44;5039690;28;20070;-74
2022/04/27 07:29:29;;;;;;;13.68;10.30;;;;;;;15.80;62.36;101208.91;5029470;28;20041;-75
2022/04/27 07:31:54;;;;;;;10.75;8.27;;;;;;;15.66;62.13;101211.25;5042499;28;20037;-74
2022/04/27 07:34:19;;;;;;;12.95;10.00;;;;;;;15.63;62.48;101218.72;5040830;28;20072;-75
2022/04/27 07:36:45;;;;;;;10.57;8.43;;;;;;;15.71;62.68;101216.94;5034655;28;20057;-74
2022/04/27 07:39:10;;;;;;;8.88;7.57;;;;;;;16.06;62.50;101222.03;5035590;28;20048;-74
2022/04/27 07:41:36;;;;;;;12.90;10.25;;;;;;;15.85;61.00;101226.09;5036752;28;20029;-74
2022/04/27 07:44:02;;;;;;;10.75;8.35;;;;;;;15.96;61.29;101224.88;5040010;28;20075;-74
2022/04/27 07:46:27;;;;;;;12.63;10.40;;;;;;;16.09;59.77;101227.03;5042168;28;20029;-75
2022/04/27 07:48:53;;;;;;;12.38;9.60;;;;;;;16.11;60.00;101215.19;5037665;28;20041;-75
2022/04/27 07:51:19;;;;;;;11.65;9.38;;;;;;;16.39;59.33;101222.75;5058782;28;20036;-75
2022/04/27 07:53:44;;;;;;;10.00;8.10;;;;;;;16.68;58.85;101230.13;5060795;28;20060;-74
2022/04/27 07:56:10;;;;;;;11.55;9.18;;;;;;;16.74;58.86;101228.59;5060401;28;20048;-75
2022/04/27 07:58:36;;;;;;;9.68;7.43;;;;;;;17.07;58.46;101229.28;5057663;28;20052;-75
2022/04/27 08:01:02;;;;;;;10.05;7.95;;;;;;;17.43;57.60;101234.03;5049291;28;20043;-75
2022/04/27 08:03:27;;;;;;;10.32;8.00;;;;;;;17.79;56.63;101242.22;5045120;28;20540;-75
2022/04/27 08:05:53;;;;;;;8.80;6.63;;;;;;;18.21;55.84;101234.63;5056750;28;20029;-76
2022/04/27 08:08:18;;;;;;;8.13;6.15;;;;;;;18.60;56.14;101234.34;5056276;28;20434;-75
2022/04/27 08:10:44;;;;;;;10.38;7.38;;;;;;;18.77;54.09;101240.34;5055412;28;20033;-75
2022/04/27 08:13:09;;;;;;;11.13;8.90;;;;;;;18.84;53.18;101232.38;5055499;28;20038;-75
2022/04/27 08:15:35;;;;;;;11.98;7.95;;;;;;;19.03;52.83;101238.97;5048829;28;20382;-75
2022/04/27 08:18:06;;;;;;;10.25;8.27;;;;;;;19.25;51.52;101240.63;5032071;28;20124;-75
2022/04/27 08:23:29;;;;;;;10.13;8.43;;;;;;;19.39;50.90;101236.22;5040503;28;20040;-76
2022/04/27 08:25:57;;;;;;;10.75;7.88;;;;;;;19.50;50.33;101237.59;5039612;28;20358;-75
2022/04/27 08:28:23;;;;;;;9.63;7.30;;;;;;;19.79;50.94;101238.47;5038892;28;20040;-75
2022/04/27 08:30:50;;;;;;;6.75;5.95;;;;;;;20.51;50.57;101242.59;5039843;28;20037;-75
2022/04/27 08:33:16;;;;;;;8.10;6.72;;;;;;;20.96;48.60;101248.38;5048038;28;20036;-75
2022/04/27 08:35:42;;;;;;;9.20;7.57;;;;;;;21.07;47.79;101244.25;5039889;28;20037;-75
2022/04/27 08:38:12;;;;;;;8.35;6.75;;;;;;;21.33;47.79;101244.31;5040196;28;20061;-75
2022/04/27 08:40:41;;;;;;;6.90;5.75;;;;;;;21.58;47.80;101244.56;5033233;28;20041;-75
2022/04/27 08:43:09;;;;;;;8.88;7.53;;;;;;;22.00;46.39;101244.31;5033191;28;20386;-75
2022/04/27 08:45:35;;;;;;;8.30;5.90;;;;;;;22.60;46.12;101244.19;5038768;28;20049;-75
2022/04/27 08:48:01;;;;;;;9.68;7.93;;;;;;;22.78;43.83;101248.84;5050100;28;20048;-75
2022/04/27 08:50:28;;;;;;;8.98;8.07;;;;;;;22.98;43.52;101240.69;5058339;28;20033;-75
2022/04/27 08:52:54;;;;;;;8.75;7.50;;;;;;;23.10;42.76;101245.19;5057860;28;20025;-74
2022/04/27 08:55:20;;;;;;;10.05;8.40;;;;;;;23.17;42.54;101247.00;5059648;28;20064;-74
2022/04/27 08:57:45;;;;;;;7.10;6.13;;;;;;;23.43;43.04;101254.94;5056193;28;20521;-74
2022/04/27 09:00:16;;;;;;;9.48;8.07;;;;;;;23.56;42.22;101254.00;5046911;28;20033;-74
2022/04/27 09:02:43;;;;;;;7.93;6.80;;;;;;;23.92;41.18;101242.47;5046214;28;20047;-74
2022/04/27 09:05:19;;;;;;;7.15;5.70;;;;;;;24.23;40.95;101243.41;5057504;28;20029;-74
2022/04/27 09:07:50;;;;;;;11.05;7.97;;;;;;;23.72;40.48;101241.81;5059546;28;20029;-74
2022/04/27 09:10:17;;;;;;;;;;;;;;;24.33;40.64;101238.28;5059175;28;20025;-74
2022/04/27 09:12:48;;;;;;;8.30;7.40;;;;;;;24.86;38.71;101236.84;5058531;28;19982;-74
2022/04/27 09:15:14;;;;;;;;;;;;;;;24.98;39.53;101245.00;5046549;28;20021;-74
2022/04/27 09:23:37;;;;;;;8.15;7.05;;;;;;;25.77;37.35;101245.66;5052432;28;20532;-74
2022/04/27 09:26:22;;;;;;;7.00;5.85;;;;;;;26.53;36.57;101244.84;5048124;28;20442;-74
2022/04/27 09:28:50;;;;;;;8.52;7.15;;;;;;;25.83;36.44;101247.41;5070195;28;20041;-74
2022/04/27 09:31:34;;;;;;;6.90;5.97;;;;;;;25.91;37.00;101242.72;5052621;28;20054;-74
2022/04/27 09:34:02;;;;;;;10.95;8.98;;;;;;;26.23;35.48;101249.41;5060106;28;20040;-74
2022/04/27 09:36:28;;;;;;;7.47;6.65;;;;;;;25.21;36.21;101241.56;5055748;28;20036;-74
2022/04/27 09:38:56;;;;;;;7.03;6.00;;;;;;;25.09;37.76;101238.78;5056675;28;20033;-74
2022/04/27 09:41:42;;;;;;;9.93;8.05;;;;;;;24.38;38.11;101237.63;5051175;28;20037;-75
2022/04/27 09:44:30;;;;;;;7.18;6.25;;;;;;;23.87;38.64;101238.81;5054275;28;20036;-74
2022/04/27 09:46:57;;;;;;;8.55;6.93;;;;;;;22.61;40.54;101240.44;5056074;28;20478;-75
2022/04/27 09:49:23;;;;;;;6.32;5.65;;;;;;;22.22;41.28;101242.25;5047159;28;20034;-74
2022/04/27 09:51:53;;;;;;;9.70;8.05;;;;;;;22.19;41.08;101245.31;5056664;28;20029;-75
2022/04/27 09:54:30;;;;;;;8.68;7.20;;;;;;;21.36;42.65;101249.28;5055122;28;20060;-74
2022/04/27 09:56:58;;;;;;;9.77;7.60;;;;;;;20.64;43.81;101241.84;5056789;28;20140;-74
2022/04/27 09:59:27;;;;;;;9.23;8.10;;;;;;;21.46;43.70;101250.78;5053629;28;20040;-74
2022/04/27 10:01:58;;;;;;;9.63;8.17;;;;;;;22.65;41.48;101237.09;5054139;28;20041;-74
2022/04/27 10:04:28;;;;;;;11.05;8.77;;;;;;;21.95;42.37;101242.28;5054803;28;20037;-74
2022/04/27 10:06:58;;;;;;;10.13;8.65;;;;;;;20.99;44.13;101242.59;5053047;28;20037;-74
2022/04/27 10:09:25;;;;;;;9.68;7.60;;;;;;;20.21;45.33;101236.66;5044569;28;20048;-74
2022/04/27 10:11:51;;;;;;;9.00;7.93;;;;;;;19.34;47.03;101238.66;5055369;28;20033;-74
2022/04/27 10:14:17;;;;;;;9.38;7.80;;;;;;;19.99;47.29;101243.97;5053952;28;20691;-74
2022/04/27 10:16:43;;;;;;;10.00;8.45;;;;;;;20.41;45.81;101229.53;5049633;28;20034;-74
2022/04/27 10:19:10;;;;;;;10.98;8.20;;;;;;;21.02;44.52;101235.97;5050532;28;20081;-74
2022/04/27 10:21:39;;;;;;;10.38;8.40;;;;;;;20.22;45.63;101230.28;5054536;28;20029;-74
2022/04/27 10:24:09;;;;;;;10.20;8.52;;;;;;;19.31;47.46;101231.84;5041760;28;20026;-74
2022/04/27 10:26:35;;;;;;;8.88;7.03;;;;;;;21.03;45.88;101232.28;5056170;28;20116;-74
2022/04/27 10:29:05;;;;;;;9.48;7.80;;;;;;;21.33;44.00;101233.56;5046705;28;20077;-74
2022/04/27 10:31:48;;;;;;;9.77;8.15;;;;;;;22.20;43.25;101228.97;5052424;28;20120;-74
2022/04/27 10:34:16;;;;;;;10.25;8.80;;;;;;;22.97;41.40;101226.34;5050462;28;20039;-74
2022/04/27 10:36:43;;;;;;;7.90;6.78;;;;;;;23.59;41.37;101225.72;5052477;28;20121;-75
2022/04/27 10:39:11;;;;;;;7.75;6.50;;;;;;;24.07;39.91;101216.97;5054054;28;20109;-74
2022/04/27 10:41:38;;;;;;;6.82;6.07;;;;;;;23.62;40.74;101220.72;5054604;28;20098;-74
2022/04/27 10:44:03;;;;;;;11.55;9.25;;;;;;;22.05;41.84;101221.13;5054789;28;20375;-74
2022/04/27 10:46:39;;;;;;;9.52;8.13;;;;;;;20.94;43.46;101226.25;5054380;28;20040;-74
2022/04/27 10:49:24;;;;;;;8.35;7.28;;;;;;;21.30;44.13;101219.69;5046179;28;20439;-74
2022/04/27 10:52:04;;;;;;;7.25;5.90;;;;;;;23.80;41.08;101224.53;5054830;28;20037;-74
2022/04/27 10:54:32;;;;;;;7.50;6.30;;;;;;;24.89;38.24;101211.22;5054458;28;20037;-74
2022/04/27 10:57:16;;;;;;;6.75;5.70;;;;;;;25.53;36.97;101230.41;5055271;28;20456;-74
2022/04/27 10:59:47;;;;;;;7.18;6.13;;;;;;;25.26;36.65;101230.03;5046315;28;20404;-74
2022/04/27 11:02:32;;;;;;;6.07;5.40;;;;;;;25.27;35.81;101223.59;5047185;28;20048;-75
2022/04/27 11:04:57;;;;;;;5.70;5.10;;;;;;;24.91;37.19;101218.03;5054752;28;20041;-74
2022/04/27 11:07:52;;;;;;;6.18;5.57;;;;;;;24.11;38.04;101221.72;5051111;28;20516;-75
2022/04/27 11:10:20;;;;;;;5.90;4.57;;;;;;;23.81;38.75;101220.78;5052005;28;20030;-74
2022/04/27 11:12:55;;;;;;;7.88;6.45;;;;;;;22.81;40.03;101219.59;5052509;28;20045;-73
2022/04/27 11:15:23;;;;;;;6.95;5.63;;;;;;;22.32;40.55;101220.25;5053509;28;20071;-74
2022/04/27 11:18:07;;;;;;;8.40;6.75;;;;;;;21.52;41.48;101223.03;5051593;28;20098;-73
2022/04/27 11:20:35;;;;;;;7.00;6.30;;;;;;;21.12;42.15;101228.38;5052988;28;20390;-73
2022/04/27 11:23:09;;;;;;;7.75;6.28;;;;;;;20.51;43.17;101216.56;5053849;28;20501;-73
2022/04/27 11:25:37;;;;;;;7.65;6.82;;;;;;;20.28;44.12;101219.53;5049530;28;20048;-73
2022/04/27 11:28:06;;;;;;;6.60;5.47;;;;;;;20.19;43.93;101218.06;5051574;28;20032;-73
2022/04/27 11:30:32;;;;;;;7.47;5.60;;;;;;;20.21;44.27;101223.22;5048456;28;20036;-73
2022/04/27 11:33:00;;;;;;;5.33;4.83;;;;;;;20.59;43.81;101218.25;5048320;28;20431;-73
2022/04/27 11:35:38;;;;;;;4.90;4.40;;;;;;;20.89;44.25;101220.66;5052612;28;20405;-73
2022/04/27 11:38:04;;;;;;;6.40;5.68;;;;;;;20.81;43.96;101220.81;5050034;28;20037;-73
2022/04/27 11:40:29;;;;;;;6.45;5.20;;;;;;;20.67;43.96;101214.59;5052717;28;20489;-73
2022/04/27 11:42:58;;;;;;;5.95;5.03;;;;;;;21.22;42.93;101220.72;5052705;28;20090;-74
2022/04/27 11:45:26;;;;;;;6.93;5.75;;;;;;;22.09;42.35;101221.50;5051290;28;20033;-74